createdAt,value
2017-12-24T08:41:24.795Z,12.90
2017-12-24T08:43:52.108Z,7.37
2017-12-24T08:46:19.260Z,6.50
2017-12-24T08:48:48.977Z,7.93
2017-12-24T08:51:16.233Z,6.70
2017-12-24T08:53:43.588Z,8.20
2017-12-24T08:56:10.748Z,10.03
2017-12-24T08:58:38.620Z,7.37
2017-12-24T09:01:06.596Z,6.60
2017-12-24T09:03:34.257Z,6.30
2017-12-24T09:06:01.315Z,5.70
2017-12-24T09:08:28.780Z,5.17
2017-12-24T09:10:55.832Z,5.00
2017-12-24T09:13:22.925Z,5.00
2017-12-24T09:15:50.753Z,5.70
2017-12-24T09:18:17.809Z,6.27
2017-12-24T09:20:44.854Z,7.23
2017-12-24T09:23:12.221Z,6.83
2017-12-24T09:25:39.194Z,5.23
2017-12-24T09:28:06.341Z,4.80
2017-12-24T09:30:34.099Z,4.57
2017-12-24T09:33:01.186Z,4.10
2017-12-24T09:35:29.031Z,3.80
2017-12-24T09:38:12.155Z,3.93
2017-12-24T09:40:40.220Z,4.10
2017-12-24T09:43:07.164Z,4.90
2017-12-24T09:45:34.217Z,3.20
2017-12-24T09:48:01.476Z,4.27
2017-12-24T09:50:28.828Z,3.80
2017-12-24T09:52:55.886Z,3.53
2017-12-24T09:55:23.244Z,3.27
2017-12-24T09:57:50.210Z,4.13
2017-12-24T10:00:17.159Z,4.50
2017-12-24T10:02:44.577Z,3.77
2017-12-24T10:05:11.665Z,3.57
2017-12-24T10:07:38.831Z,3.43
2017-12-24T10:10:05.943Z,5.00
2017-12-24T10:12:33.522Z,4.00
2017-12-24T10:15:01.000Z,3.80
2017-12-24T10:17:28.150Z,5.90
2017-12-24T10:19:55.313Z,5.23
2017-12-24T10:22:22.468Z,6.10
2017-12-24T10:24:49.624Z,5.20
2017-12-24T10:27:16.675Z,6.20
2017-12-24T10:29:44.508Z,5.60
2017-12-24T10:32:12.712Z,4.87
2017-12-24T10:34:39.770Z,5.90
2017-12-24T10:37:07.032Z,4.80
2017-12-24T10:39:34.183Z,4.20
2017-12-24T10:42:01.390Z,3.40
2017-12-24T10:44:28.557Z,3.63
2017-12-24T10:46:55.649Z,4.67
2017-12-24T10:49:23.589Z,4.20
2017-12-24T10:58:37.309Z,5.10
2017-12-24T11:01:04.497Z,4.40
2017-12-24T11:03:31.551Z,4.20
2017-12-24T11:06:00.244Z,4.47
2017-12-24T11:08:29.343Z,3.70
2017-12-24T11:10:56.500Z,6.00
2017-12-24T11:13:24.364Z,7.30
2017-12-24T11:15:51.409Z,4.50
2017-12-24T11:18:18.466Z,4.50
2017-12-24T11:20:45.516Z,4.40
2017-12-24T11:23:12.575Z,3.77
2017-12-24T11:25:40.083Z,4.43
2017-12-24T11:28:07.499Z,4.43
2017-12-24T11:30:36.339Z,4.33
2017-12-24T11:33:04.190Z,3.93
2017-12-24T11:35:32.240Z,3.50
2017-12-24T11:37:59.280Z,4.67
2017-12-24T11:40:26.330Z,4.13
2017-12-24T11:42:55.264Z,3.53
2017-12-24T11:45:23.067Z,3.90
2017-12-24T11:47:50.251Z,4.20
2017-12-24T11:50:17.404Z,4.83
2017-12-24T11:52:44.531Z,3.40
2017-12-24T11:55:12.429Z,3.43
2017-12-24T11:57:39.522Z,3.70
2017-12-24T12:00:07.252Z,3.83
2017-12-24T12:02:35.091Z,4.60
2017-12-24T12:05:02.274Z,3.93
2017-12-24T12:07:29.541Z,4.83
2017-12-24T12:09:56.592Z,4.23
2017-12-24T12:12:23.747Z,5.43
2017-12-24T12:14:50.803Z,5.40
2017-12-24T12:17:20.436Z,5.07
2017-12-24T12:19:47.564Z,4.80
2017-12-24T12:22:14.932Z,4.80
2017-12-24T12:24:41.985Z,4.40
2017-12-24T12:27:09.048Z,4.63
2017-12-24T12:29:36.093Z,4.40
2017-12-24T12:32:03.248Z,5.00
2017-12-24T12:34:30.950Z,4.83
2017-12-24T12:36:58.261Z,3.90
2017-12-24T12:39:27.464Z,3.00
2017-12-24T12:41:54.569Z,3.50
2017-12-24T12:44:22.465Z,3.03
2017-12-24T12:46:50.365Z,3.90
2017-12-24T12:49:17.824Z,3.83
2017-12-24T12:51:44.892Z,4.10
2017-12-24T12:54:12.036Z,3.93
2017-12-24T12:56:39.190Z,3.43
2017-12-24T12:59:07.775Z,3.70
2017-12-24T13:01:35.826Z,3.87
2017-12-24T13:04:02.925Z,3.50
2017-12-24T13:06:30.060Z,3.93
2017-12-24T13:08:57.238Z,3.57
2017-12-24T13:11:25.124Z,3.83
2017-12-24T13:13:53.843Z,5.20
2017-12-24T13:16:20.942Z,4.20
2017-12-24T13:18:48.074Z,3.53
2017-12-24T13:21:15.660Z,3.20
2017-12-24T13:23:45.065Z,2.83
2017-12-24T13:26:12.898Z,2.53
2017-12-24T13:28:40.294Z,3.43
2017-12-24T13:31:08.152Z,3.20
2017-12-24T13:33:36.016Z,3.28
2017-12-24T13:36:03.290Z,3.33
2017-12-24T13:38:31.364Z,4.23
2017-12-24T13:40:59.348Z,4.50
2017-12-24T13:43:26.399Z,3.83
2017-12-24T13:45:54.266Z,4.13
2017-12-24T13:48:22.860Z,3.80
2017-12-24T13:50:50.211Z,4.00
2017-12-24T13:53:17.968Z,3.90
2017-12-24T13:55:45.198Z,5.90
2017-12-24T13:58:12.483Z,3.87
2017-12-24T14:00:39.585Z,3.97
2017-12-24T14:03:07.508Z,4.20
2017-12-24T14:05:34.707Z,4.83
2017-12-24T14:08:01.925Z,4.30
2017-12-24T14:10:29.488Z,4.30
2017-12-24T14:12:56.533Z,5.10
2017-12-24T14:15:23.697Z,4.97
2017-12-24T14:17:50.747Z,4.63
2017-12-24T14:20:17.804Z,5.07
2017-12-24T14:22:45.052Z,4.87
2017-12-24T14:25:12.424Z,3.83
2017-12-24T14:27:39.571Z,3.50
2017-12-24T14:30:06.804Z,4.17
2017-12-24T14:32:33.985Z,4.63
2017-12-24T14:35:01.043Z,5.03
2017-12-24T14:37:28.396Z,4.57
2017-12-24T14:39:55.460Z,4.60
2017-12-24T14:42:22.512Z,5.10
2017-12-24T14:44:49.692Z,5.50
2017-12-24T14:47:17.458Z,4.03
2017-12-24T14:49:46.425Z,4.30
2017-12-24T14:52:13.478Z,3.60
2017-12-24T14:54:40.532Z,3.50
2017-12-24T14:57:07.683Z,3.50
2017-12-24T14:59:34.940Z,5.20
2017-12-24T15:02:01.993Z,3.50
2017-12-24T15:04:29.100Z,6.27
2017-12-24T15:06:56.106Z,11.00
2017-12-24T15:09:23.264Z,6.80
2017-12-24T15:11:50.930Z,5.20
2017-12-24T15:14:18.936Z,4.30
2017-12-24T15:16:46.906Z,6.47
2017-12-24T15:19:14.645Z,5.90
2017-12-24T15:21:41.867Z,7.67
2017-12-24T15:24:09.460Z,6.73
2017-12-24T15:26:36.508Z,6.70
2017-12-24T15:29:03.675Z,7.30
2017-12-24T15:31:30.728Z,6.57
2017-12-24T15:33:58.084Z,6.20
2017-12-24T15:36:25.128Z,6.17
2017-12-24T15:38:52.170Z,6.50
2017-12-24T15:41:19.410Z,5.43
2017-12-24T15:43:47.674Z,8.20
2017-12-24T15:46:14.771Z,6.13
2017-12-24T15:48:41.825Z,5.77
2017-12-24T15:51:08.984Z,5.47
2017-12-24T15:53:36.136Z,4.70
2017-12-24T15:56:03.026Z,4.10
2017-12-24T15:58:30.251Z,4.60
2017-12-24T16:00:57.293Z,4.93
2017-12-24T16:03:24.522Z,5.23
2017-12-24T16:05:51.604Z,4.70
2017-12-24T16:08:18.652Z,5.37
2017-12-24T16:10:45.809Z,4.30
2017-12-24T16:13:13.283Z,4.57
2017-12-24T16:15:40.436Z,5.20
2017-12-24T16:18:07.480Z,4.37
2017-12-24T16:20:35.250Z,4.77
2017-12-24T16:23:02.884Z,4.30
2017-12-24T16:25:30.068Z,3.93
2017-12-24T16:27:57.226Z,4.10
2017-12-24T16:30:24.480Z,4.80
2017-12-24T16:32:51.636Z,6.60
2017-12-24T16:35:19.033Z,7.83
2017-12-24T16:37:46.969Z,5.30
2017-12-24T16:40:14.240Z,5.10
2017-12-24T16:42:41.498Z,5.07
2017-12-24T16:45:08.539Z,6.83
2017-12-24T16:47:35.792Z,8.10
2017-12-24T16:50:02.848Z,6.03
2017-12-24T16:52:30.132Z,4.37
2017-12-24T16:54:58.180Z,4.90
2017-12-24T16:57:26.157Z,6.20
2017-12-24T16:59:53.412Z,4.40
2017-12-24T17:02:21.458Z,4.77
2017-12-24T17:04:48.543Z,4.33
2017-12-24T17:07:15.812Z,4.77
2017-12-24T17:09:43.026Z,4.60
2017-12-24T17:12:10.314Z,3.90
2017-12-24T17:14:37.368Z,4.93
2017-12-24T17:17:05.237Z,4.47
2017-12-24T17:19:32.396Z,5.27
2017-12-24T17:21:59.444Z,6.33
2017-12-24T17:24:26.601Z,5.60
2017-12-24T17:26:53.652Z,5.20
2017-12-24T17:29:20.709Z,4.47
2017-12-24T17:31:48.068Z,4.93
2017-12-24T17:34:15.937Z,8.20
2017-12-24T17:36:43.100Z,5.30
2017-12-24T17:39:10.316Z,4.80
2017-12-24T17:41:37.507Z,7.90
2017-12-24T17:44:04.564Z,5.40
2017-12-24T17:46:31.492Z,5.40
2017-12-24T17:48:58.556Z,6.33
2017-12-24T17:51:25.864Z,5.20
2017-12-24T17:53:53.074Z,5.70
2017-12-24T17:56:20.132Z,7.63
2017-12-24T17:58:47.822Z,8.20
2017-12-24T18:01:15.773Z,5.07
2017-12-24T18:03:42.924Z,4.80
2017-12-24T18:06:09.972Z,5.57
2017-12-24T18:08:37.844Z,6.40
2017-12-24T18:11:05.524Z,5.90
2017-12-24T18:13:33.744Z,6.67
2017-12-24T18:16:00.747Z,6.70
2017-12-24T18:18:27.903Z,5.10
2017-12-24T18:20:54.957Z,4.77
2017-12-24T18:23:22.010Z,5.83
2017-12-24T18:25:49.060Z,5.30
2017-12-24T18:28:16.212Z,7.70
2017-12-24T18:30:43.465Z,6.63
2017-12-24T18:33:10.516Z,4.77
2017-12-24T18:35:37.780Z,3.23
2017-12-24T18:38:04.828Z,6.57
2017-12-24T18:40:31.884Z,4.67
2017-12-24T18:42:59.861Z,7.00
2017-12-24T18:45:26.906Z,5.60
2017-12-24T18:47:53.998Z,5.73
2017-12-24T18:50:21.836Z,9.57
2017-12-24T18:52:49.504Z,8.93
2017-12-24T18:55:16.663Z,6.57
2017-12-24T18:57:43.916Z,7.07
2017-12-24T19:00:11.276Z,9.63
2017-12-24T19:02:38.538Z,8.03
2017-12-24T19:05:05.586Z,9.17
2017-12-24T19:07:32.836Z,7.77
2017-12-24T19:09:59.897Z,7.60
2017-12-24T19:12:26.952Z,8.60
2017-12-24T19:14:54.105Z,5.57
2017-12-24T19:17:21.156Z,5.43
2017-12-24T19:19:48.924Z,5.97
2017-12-24T19:22:16.698Z,4.40
2017-12-24T19:24:43.962Z,6.40
2017-12-24T19:27:11.052Z,5.30
2017-12-24T19:29:38.266Z,5.17
2017-12-24T19:32:05.416Z,3.30
2017-12-24T19:34:32.572Z,3.53
2017-12-24T19:36:59.825Z,4.57
2017-12-24T19:39:26.884Z,3.93
2017-12-24T19:41:54.034Z,4.50
2017-12-24T19:44:21.090Z,3.57
2017-12-24T19:46:48.252Z,4.90
2017-12-24T19:49:15.297Z,5.37
2017-12-24T19:51:42.940Z,5.57
2017-12-24T19:54:10.020Z,5.67
2017-12-24T19:56:37.170Z,8.63
2017-12-24T19:59:05.146Z,7.20
2017-12-24T20:01:32.296Z,5.60
2017-12-24T20:03:59.356Z,5.23
2017-12-24T20:06:26.921Z,4.50
2017-12-24T20:08:54.276Z,5.10
2017-12-24T20:11:21.436Z,4.30
2017-12-24T20:13:48.580Z,4.40
2017-12-24T20:16:15.807Z,4.17
2017-12-24T20:18:43.716Z,4.00
2017-12-24T20:21:11.691Z,3.80
2017-12-24T20:23:38.840Z,3.63
2017-12-24T20:26:05.892Z,3.50
2017-12-24T20:28:33.164Z,3.43
2017-12-24T20:31:00.200Z,5.00
2017-12-24T20:33:27.268Z,7.70
2017-12-24T20:35:54.527Z,9.97
2017-12-24T20:38:21.771Z,7.07
2017-12-24T20:40:48.956Z,4.60
2017-12-24T20:43:17.009Z,6.90
2017-12-24T20:45:44.060Z,3.63
2017-12-24T20:48:11.444Z,4.27
2017-12-24T20:50:39.189Z,4.00
2017-12-24T20:53:06.309Z,3.70
2017-12-24T20:55:33.914Z,4.43
2017-12-24T20:58:01.064Z,4.10
2017-12-24T21:00:29.547Z,5.23
2017-12-24T21:02:56.981Z,6.37
2017-12-24T21:05:24.677Z,5.80
2017-12-24T21:07:51.833Z,6.30
2017-12-24T21:10:19.508Z,8.30
2017-12-24T21:12:46.452Z,13.87
2017-12-24T21:15:13.406Z,16.77
2017-12-24T21:17:41.264Z,15.43
2017-12-24T21:20:08.329Z,10.80
2017-12-24T21:22:35.375Z,6.10
2017-12-24T21:25:02.643Z,6.10
2017-12-24T21:27:29.681Z,5.10
2017-12-24T21:29:56.740Z,4.77
2017-12-24T21:32:23.787Z,3.83
2017-12-24T21:34:51.465Z,3.87
2017-12-24T21:37:18.569Z,3.57
2017-12-24T21:39:45.979Z,3.40
2017-12-24T21:42:13.029Z,3.90
2017-12-24T21:44:39.999Z,4.73
2017-12-24T21:47:07.844Z,4.10
2017-12-24T21:49:35.204Z,5.07
2017-12-24T21:52:02.363Z,6.40
2017-12-24T21:54:29.412Z,3.83
2017-12-24T21:56:56.572Z,2.60
2017-12-24T21:59:23.577Z,2.90
2017-12-24T22:01:50.776Z,3.10
2017-12-24T22:04:18.035Z,5.47
2017-12-24T22:06:45.284Z,4.50
2017-12-24T22:09:12.445Z,9.50
2017-12-24T22:11:40.315Z,6.47
2017-12-24T22:14:07.370Z,5.90
2017-12-24T22:16:34.425Z,6.20
2017-12-24T22:19:01.540Z,6.07
2017-12-24T22:21:28.622Z,7.13
2017-12-24T22:23:55.832Z,9.10
2017-12-24T22:26:23.648Z,7.73
2017-12-24T22:28:50.804Z,6.90
2017-12-24T22:31:17.763Z,7.77
2017-12-24T22:33:45.537Z,5.60
2017-12-24T22:36:12.779Z,6.43
2017-12-24T22:38:39.947Z,11.43
2017-12-24T22:41:07.100Z,9.93
2017-12-24T22:43:35.288Z,10.77
2017-12-24T22:46:02.392Z,14.43
2017-12-24T22:48:29.802Z,11.30
2017-12-24T22:50:56.955Z,11.73
2017-12-24T22:53:24.076Z,6.53
2017-12-24T22:55:51.155Z,9.13
2017-12-24T22:58:18.928Z,6.83
2017-12-24T23:00:46.082Z,7.00
2017-12-24T23:03:13.235Z,10.00
2017-12-24T23:05:40.427Z,9.10
2017-12-24T23:08:08.156Z,6.70
2017-12-24T23:10:35.457Z,6.67
2017-12-24T23:13:03.307Z,6.90
2017-12-24T23:15:30.543Z,6.13
2017-12-24T23:17:58.107Z,5.50
2017-12-24T23:20:25.165Z,12.10
2017-12-24T23:22:52.347Z,13.20
2017-12-24T23:25:20.291Z,15.97
2017-12-24T23:27:47.473Z,14.43
2017-12-24T23:30:15.211Z,11.63
2017-12-24T23:32:42.404Z,8.10
2017-12-24T23:35:10.233Z,7.13
2017-12-24T23:37:37.595Z,6.77
2017-12-24T23:40:04.752Z,8.87
2017-12-24T23:42:32.032Z,6.80
2017-12-24T23:44:59.784Z,4.23
2017-12-24T23:47:26.967Z,4.17
2017-12-24T23:49:54.912Z,5.93
2017-12-24T23:52:22.628Z,4.07
2017-12-24T23:54:49.732Z,3.10
2017-12-24T23:57:16.984Z,2.80
2017-12-24T23:59:44.144Z,3.40
